Terminal Aerodrome Forecast
Issued by NWS Cleveland, OH

Home | Current Version | Previous Version | Text Only | Print | Product List | Glossary On
Versions: 1 2 3 4 5 6 7 8 9 10 11 12 13 14
000
FTUS41 KCLE 061808 AAA
TAFYNG
TAF AMD
KYNG 061808Z 0618/0718 VRB04KT P6SM VCSH SCT040 BKN110
      TEMPO 0619/0623 3SM -TSRA BKN030CB
     FM070100 17004KT P6SM SCT100
     FM071500 20011KT P6SM SCT040 BKN080=

USA.gov is the U.S. government's official web portal to all federal, state and local government web resources and services.